sensor_id;sensor_type;location;lat;lon;timestamp;temperature;humidity
9941;DHT22;5009;50.656;7.188;2023-03-24T04:38:15;14.20;99.90
9941;DHT22;5009;50.656;7.188;2023-03-24T04:40:44;14.20;99.90
9941;DHT22;5009;50.656;7.188;2023-03-24T04:43:15;14.20;99.90
9941;DHT22;5009;50.656;7.188;2023-03-24T04:45:42;14.30;99.90
9941;DHT22;5009;50.656;7.188;2023-03-24T04:48:16;14.30;99.90
9941;DHT22;5009;50.656;7.188;2023-03-24T04:50:43;14.30;99.90
9941;DHT22;5009;50.656;7.188;2023-03-24T04:53:12;14.30;99.90
9941;DHT22;5009;50.656;7.188;2023-03-24T04:56:03;14.30;99.90
9941;DHT22;5009;50.656;7.188;2023-03-24T04:58:30;14.30;99.90
9941;DHT22;5009;50.656;7.188;2023-03-24T05:00:56;14.30;99.90
9941;DHT22;5009;50.656;7.188;2023-03-24T05:03:23;14.40;99.90
9941;DHT22;5009;50.656;7.188;2023-03-24T05:05:50;14.30;99.90
9941;DHT22;5009;50.656;7.188;2023-03-24T05:08:16;14.30;99.90
9941;DHT22;5009;50.656;7.188;2023-03-24T05:10:43;14.40;99.90
9941;DHT22;5009;50.656;7.188;2023-03-24T05:13:08;14.40;99.90
9941;DHT22;5009;50.656;7.188;2023-03-24T05:15:34;14.30;99.90
9941;DHT22;5009;50.656;7.188;2023-03-24T05:18:00;14.40;99.90
9941;DHT22;5009;50.656;7.188;2023-03-24T05:20:26;14.40;99.90
9941;DHT22;5009;50.656;7.188;2023-03-24T05:22:52;14.40;99.90
9941;DHT22;5009;50.656;7.188;2023-03-24T05:25:19;14.40;99.90
9941;DHT22;5009;50.656;7.188;2023-03-24T05:27:45;14.30;99.90
9941;DHT22;5009;50.656;7.188;2023-03-24T05:30:11;14.30;99.90
9941;DHT22;5009;50.656;7.188;2023-03-24T05:32:37;14.30;99.90
9941;DHT22;5009;50.656;7.188;2023-03-24T05:35:04;14.30;99.90
9941;DHT22;5009;50.656;7.188;2023-03-24T05:37:30;14.30;99.90
9941;DHT22;5009;50.656;7.188;2023-03-24T05:39:55;14.30;99.90
9941;DHT22;5009;50.656;7.188;2023-03-24T05:42:21;14.30;99.90
9941;DHT22;5009;50.656;7.188;2023-03-24T05:44:47;14.40;99.90
9941;DHT22;5009;50.656;7.188;2023-03-24T05:47:14;14.30;99.90
9941;DHT22;5009;50.656;7.188;2023-03-24T05:49:43;14.30;99.90
9941;DHT22;5009;50.656;7.188;2023-03-24T05:52:10;14.20;99.90
9941;DHT22;5009;50.656;7.188;2023-03-24T05:54:36;14.20;99.90
9941;DHT22;5009;50.656;7.188;2023-03-24T05:57:04;14.00;99.90
9941;DHT22;5009;50.656;7.188;2023-03-24T05:59:33;13.90;99.90
9941;DHT22;5009;50.656;7.188;2023-03-24T06:01:59;13.70;99.90
9941;DHT22;5009;50.656;7.188;2023-03-24T06:04:24;13.50;99.90
9941;DHT22;5009;50.656;7.188;2023-03-24T06:06:54;13.30;99.90
9941;DHT22;5009;50.656;7.188;2023-03-24T06:09:20;13.30;99.90
9941;DHT22;5009;50.656;7.188;2023-03-24T06:11:46;13.20;99.90
9941;DHT22;5009;50.656;7.188;2023-03-24T06:14:11;13.20;99.90
9941;DHT22;5009;50.656;7.188;2023-03-24T06:16:37;13.10;99.90
9941;DHT22;5009;50.656;7.188;2023-03-24T06:19:03;13.10;99.90
9941;DHT22;5009;50.656;7.188;2023-03-24T06:21:32;13.10;99.90
9941;DHT22;5009;50.656;7.188;2023-03-24T06:23:58;13.10;99.90
9941;DHT22;5009;50.656;7.188;2023-03-24T06:26:24;13.00;99.90
9941;DHT22;5009;50.656;7.188;2023-03-24T06:28:50;13.00;99.90
9941;DHT22;5009;50.656;7.188;2023-03-24T06:31:19;13.00;99.90
9941;DHT22;5009;50.656;7.188;2023-03-24T06:33:47;13.00;99.90
9941;DHT22;5009;50.656;7.188;2023-03-24T06:36:13;13.00;99.90
9941;DHT22;5009;50.656;7.188;2023-03-24T06:38:39;13.00;99.90
9941;DHT22;5009;50.656;7.188;2023-03-24T06:41:05;13.00;99.90
9941;DHT22;5009;50.656;7.188;2023-03-24T06:43:31;12.90;99.90
9941;DHT22;5009;50.656;7.188;2023-03-24T06:45:58;12.90;99.90
9941;DHT22;5009;50.656;7.188;2023-03-24T06:48:24;12.90;99.90
9941;DHT22;5009;50.656;7.188;2023-03-24T06:50:54;12.80;99.90
9941;DHT22;5009;50.656;7.188;2023-03-24T06:53:20;12.70;99.90
9941;DHT22;5009;50.656;7.188;2023-03-24T06:55:49;12.70;99.90
9941;DHT22;5009;50.656;7.188;2023-03-24T06:58:16;12.70;99.90
9941;DHT22;5009;50.656;7.188;2023-03-24T07:00:42;12.70;99.90
9941;DHT22;5009;50.656;7.188;2023-03-24T07:03:08;12.80;99.90
9941;DHT22;5009;50.656;7.188;2023-03-24T07:05:42;12.80;99.90
9941;DHT22;5009;50.656;7.188;2023-03-24T07:08:08;12.90;99.90
9941;DHT22;5009;50.656;7.188;2023-03-24T07:10:35;13.00;99.90
9941;DHT22;5009;50.656;7.188;2023-03-24T07:13:01;13.00;99.90
9941;DHT22;5009;50.656;7.188;2023-03-24T07:15:28;13.10;99.90
9941;DHT22;5009;50.656;7.188;2023-03-24T07:17:54;13.10;99.90
9941;DHT22;5009;50.656;7.188;2023-03-24T07:20:19;13.10;99.90
9941;DHT22;5009;50.656;7.188;2023-03-24T07:22:45;13.10;99.90
9941;DHT22;5009;50.656;7.188;2023-03-24T07:25:11;13.00;99.90
9941;DHT22;5009;50.656;7.188;2023-03-24T07:27:39;13.00;99.90
9941;DHT22;5009;50.656;7.188;2023-03-24T07:30:06;13.10;99.90
9941;DHT22;5009;50.656;7.188;2023-03-24T07:32:33;13.00;99.90
9941;DHT22;5009;50.656;7.188;2023-03-24T07:34:59;13.10;99.90
9941;DHT22;5009;50.656;7.188;2023-03-24T07:37:25;13.10;99.90
9941;DHT22;5009;50.656;7.188;2023-03-24T07:39:51;13.10;99.90
9941;DHT22;5009;50.656;7.188;2023-03-24T07:42:16;13.10;99.90
9941;DHT22;5009;50.656;7.188;2023-03-24T07:44:42;13.00;99.90
9941;DHT22;5009;50.656;7.188;2023-03-24T07:47:08;13.00;99.90
9941;DHT22;5009;50.656;7.188;2023-03-24T07:49:33;13.00;99.90
9941;DHT22;5009;50.656;7.188;2023-03-24T07:51:59;13.00;99.90
9941;DHT22;5009;50.656;7.188;2023-03-24T07:54:25;13.00;99.90
9941;DHT22;5009;50.656;7.188;2023-03-24T07:56:51;13.00;99.90
9941;DHT22;5009;50.656;7.188;2023-03-24T07:59:17;13.00;99.90
9941;DHT22;5009;50.656;7.188;2023-03-24T08:01:43;13.00;99.90
9941;DHT22;5009;50.656;7.188;2023-03-24T08:04:11;13.10;99.90
9941;DHT22;5009;50.656;7.188;2023-03-24T08:06:38;13.10;99.90
9941;DHT22;5009;50.656;7.188;2023-03-24T08:09:04;13.10;99.90
9941;DHT22;5009;50.656;7.188;2023-03-24T08:11:30;13.20;99.90
9941;DHT22;5009;50.656;7.188;2023-03-24T08:13:55;13.20;99.90
9941;DHT22;5009;50.656;7.188;2023-03-24T08:16:22;13.20;99.90
9941;DHT22;5009;50.656;7.188;2023-03-24T08:18:49;13.20;99.90
9941;DHT22;5009;50.656;7.188;2023-03-24T08:21:15;13.20;99.90
9941;DHT22;5009;50.656;7.188;2023-03-24T08:23:40;13.30;99.90
9941;DHT22;5009;50.656;7.188;2023-03-24T08:26:07;13.40;99.90
9941;DHT22;5009;50.656;7.188;2023-03-24T08:28:35;13.40;99.90
9941;DHT22;5009;50.656;7.188;2023-03-24T08:31:02;13.40;99.90
9941;DHT22;5009;50.656;7.188;2023-03-24T08:33:28;13.50;99.90
9941;DHT22;5009;50.656;7.188;2023-03-24T08:35:53;13.50;99.90
9941;DHT22;5009;50.656;7.188;2023-03-24T08:38:22;13.70;99.90
9941;DHT22;5009;50.656;7.188;2023-03-24T08:40:59;13.70;99.90
9941;DHT22;5009;50.656;7.188;2023-03-24T08:43:30;13.90;99.90
9941;DHT22;5009;50.656;7.188;2023-03-24T08:45:56;14.10;99.90
9941;DHT22;5009;50.656;7.188;2023-03-24T08:48:23;14.30;99.90
9941;DHT22;5009;50.656;7.188;2023-03-24T08:50:48;14.30;99.90
9941;DHT22;5009;50.656;7.188;2023-03-24T08:53:14;14.50;99.90
9941;DHT22;5009;50.656;7.188;2023-03-24T08:55:41;14.60;99.90
9941;DHT22;5009;50.656;7.188;2023-03-24T08:58:19;14.70;99.90
9941;DHT22;5009;50.656;7.188;2023-03-24T09:00:46;14.80;99.90
9941;DHT22;5009;50.656;7.188;2023-03-24T09:03:15;14.90;99.90
9941;DHT22;5009;50.656;7.188;2023-03-24T09:05:45;15.10;99.20
9941;DHT22;5009;50.656;7.188;2023-03-24T09:08:11;15.40;98.40
9941;DHT22;5009;50.656;7.188;2023-03-24T09:10:38;15.70;97.40
9941;DHT22;5009;50.656;7.188;2023-03-24T09:13:04;15.90;96.80
9941;DHT22;5009;50.656;7.188;2023-03-24T09:15:30;16.30;96.10
9941;DHT22;5009;50.656;7.188;2023-03-24T09:17:56;16.50;94.90
9941;DHT22;5009;50.656;7.188;2023-03-24T09:20:22;16.60;94.80
9941;DHT22;5009;50.656;7.188;2023-03-24T09:22:47;16.70;94.40
9941;DHT22;5009;50.656;7.188;2023-03-24T09:25:16;17.00;93.70
9941;DHT22;5009;50.656;7.188;2023-03-24T09:27:42;17.30;93.20
9941;DHT22;5009;50.656;7.188;2023-03-24T09:30:08;17.60;92.90
9941;DHT22;5009;50.656;7.188;2023-03-24T09:32:35;17.60;91.90
9941;DHT22;5009;50.656;7.188;2023-03-24T09:35:01;17.70;91.90
9941;DHT22;5009;50.656;7.188;2023-03-24T09:37:31;17.90;91.10
9941;DHT22;5009;50.656;7.188;2023-03-24T09:39:57;18.00;90.90
9941;DHT22;5009;50.656;7.188;2023-03-24T09:42:26;18.10;90.60
9941;DHT22;5009;50.656;7.188;2023-03-24T09:44:58;18.00;90.20
9941;DHT22;5009;50.656;7.188;2023-03-24T09:47:38;18.10;90.40
9941;DHT22;5009;50.656;7.188;2023-03-24T09:50:15;18.30;90.00
9941;DHT22;5009;50.656;7.188;2023-03-24T09:52:43;18.30;89.80
9941;DHT22;5009;50.656;7.188;2023-03-24T09:55:18;18.40;89.00
9941;DHT22;5009;50.656;7.188;2023-03-24T09:57:47;18.50;87.70
9941;DHT22;5009;50.656;7.188;2023-03-24T10:00:30;18.60;87.50
9941;DHT22;5009;50.656;7.188;2023-03-24T10:03:22;18.50;85.10
9941;DHT22;5009;50.656;7.188;2023-03-24T10:06:07;18.50;84.90
9941;DHT22;5009;50.656;7.188;2023-03-24T10:08:41;18.70;85.10
9941;DHT22;5009;50.656;7.188;2023-03-24T10:11:32;18.70;82.80
9941;DHT22;5009;50.656;7.188;2023-03-24T10:16:52;18.70;82.60
9941;DHT22;5009;50.656;7.188;2023-03-24T10:22:29;18.50;79.30
9941;DHT22;5009;50.656;7.188;2023-03-24T10:28:00;18.30;79.60
9941;DHT22;5009;50.656;7.188;2023-03-24T10:30:35;18.10;78.10
9941;DHT22;5009;50.656;7.188;2023-03-24T10:33:02;18.10;77.60
9941;DHT22;5009;50.656;7.188;2023-03-24T10:35:34;18.00;76.40
9941;DHT22;5009;50.656;7.188;2023-03-24T10:38:16;17.90;76.90
9941;DHT22;5009;50.656;7.188;2023-03-24T10:40:44;17.80;75.90
9941;DHT22;5009;50.656;7.188;2023-03-24T10:43:10;17.70;76.10
9941;DHT22;5009;50.656;7.188;2023-03-24T10:45:39;17.70;76.00
9941;DHT22;5009;50.656;7.188;2023-03-24T10:48:06;17.60;75.40
9941;DHT22;5009;50.656;7.188;2023-03-24T10:50:34;17.50;74.50
9941;DHT22;5009;50.656;7.188;2023-03-24T10:53:07;17.60;74.70
9941;DHT22;5009;50.656;7.188;2023-03-24T10:55:38;17.40;72.50
9941;DHT22;5009;50.656;7.188;2023-03-24T10:58:18;17.40;72.60
9941;DHT22;5009;50.656;7.188;2023-03-24T11:00:45;17.50;73.30
9941;DHT22;5009;50.656;7.188;2023-03-24T11:03:15;17.60;73.50
9941;DHT22;5009;50.656;7.188;2023-03-24T11:05:42;17.60;74.10
9941;DHT22;5009;50.656;7.188;2023-03-24T11:10:37;17.50;73.00
9941;DHT22;5009;50.656;7.188;2023-03-24T11:13:03;17.60;72.10
9941;DHT22;5009;50.656;7.188;2023-03-24T11:15:34;17.50;71.80
9941;DHT22;5009;50.656;7.188;2023-03-24T11:20:38;17.50;73.20
9941;DHT22;5009;50.656;7.188;2023-03-24T11:23:18;17.50;72.80
9941;DHT22;5009;50.656;7.188;2023-03-24T11:26:08;17.60;71.40
9941;DHT22;5009;50.656;7.188;2023-03-24T11:28:46;17.50;71.10
9941;DHT22;5009;50.656;7.188;2023-03-24T11:31:23;17.50;70.10
9941;DHT22;5009;50.656;7.188;2023-03-24T11:34:11;17.60;71.00
9941;DHT22;5009;50.656;7.188;2023-03-24T11:36:47;17.70;69.40
9941;DHT22;5009;50.656;7.188;2023-03-24T11:39:22;17.90;70.40
9941;DHT22;5009;50.656;7.188;2023-03-24T11:42:02;17.90;70.00
9941;DHT22;5009;50.656;7.188;2023-03-24T11:47:35;18.10;70.30
9941;DHT22;5009;50.656;7.188;2023-03-24T11:52:44;18.40;69.30
9941;DHT22;5009;50.656;7.188;2023-03-24T11:55:22;18.50;69.60
9941;DHT22;5009;50.656;7.188;2023-03-24T11:58:10;18.60;69.70
9941;DHT22;5009;50.656;7.188;2023-03-24T12:00:52;18.60;69.40
9941;DHT22;5009;50.656;7.188;2023-03-24T12:06:11;18.50;67.10
9941;DHT22;5009;50.656;7.188;2023-03-24T12:08:59;18.50;66.20
9941;DHT22;5009;50.656;7.188;2023-03-24T12:11:32;18.50;65.30
9941;DHT22;5009;50.656;7.188;2023-03-24T12:14:03;18.50;62.80
9941;DHT22;5009;50.656;7.188;2023-03-24T12:16:39;18.60;63.00
9941;DHT22;5009;50.656;7.188;2023-03-24T12:19:36;18.60;62.60
9941;DHT22;5009;50.656;7.188;2023-03-24T12:30:22;18.40;61.40
9941;DHT22;5009;50.656;7.188;2023-03-24T12:35:49;18.20;62.30
9941;DHT22;5009;50.656;7.188;2023-03-24T12:38:31;18.20;61.80
9941;DHT22;5009;50.656;7.188;2023-03-24T12:44:33;18.40;61.70
9941;DHT22;5009;50.656;7.188;2023-03-24T12:49:26;18.30;61.00
9941;DHT22;5009;50.656;7.188;2023-03-24T12:54:56;18.40;60.20
9941;DHT22;5009;50.656;7.188;2023-03-24T12:57:35;18.30;59.50
9941;DHT22;5009;50.656;7.188;2023-03-24T13:00:11;18.30;59.40
9941;DHT22;5009;50.656;7.188;2023-03-24T13:02:45;18.20;59.20
9941;DHT22;5009;50.656;7.188;2023-03-24T13:05:22;18.00;59.50
9941;DHT22;5009;50.656;7.188;2023-03-24T13:07:55;18.00;59.50
9941;DHT22;5009;50.656;7.188;2023-03-24T13:10:29;18.00;59.90
9941;DHT22;5009;50.656;7.188;2023-03-24T13:13:20;18.10;59.70
9941;DHT22;5009;50.656;7.188;2023-03-24T13:15:48;18.00;60.00
9941;DHT22;5009;50.656;7.188;2023-03-24T13:20:59;18.10;60.70
9941;DHT22;5009;50.656;7.188;2023-03-24T13:23:58;18.10;61.90
9941;DHT22;5009;50.656;7.188;2023-03-24T13:32:02;18.00;59.40
9941;DHT22;5009;50.656;7.188;2023-03-24T13:34:33;18.00;59.00
9941;DHT22;5009;50.656;7.188;2023-03-24T13:37:16;18.00;59.10
9941;DHT22;5009;50.656;7.188;2023-03-24T13:39:44;18.10;59.00
9941;DHT22;5009;50.656;7.188;2023-03-24T13:45:03;18.30;59.80
9941;DHT22;5009;50.656;7.188;2023-03-24T13:48:02;18.30;60.20
9941;DHT22;5009;50.656;7.188;2023-03-24T13:50:36;18.50;60.30
9941;DHT22;5009;50.656;7.188;2023-03-24T13:53:12;18.40;60.10
9941;DHT22;5009;50.656;7.188;2023-03-24T13:55:39;18.30;60.50
9941;DHT22;5009;50.656;7.188;2023-03-24T13:58:22;18.30;59.90
9941;DHT22;5009;50.656;7.188;2023-03-24T14:01:18;18.30;60.40
9941;DHT22;5009;50.656;7.188;2023-03-24T14:06:57;18.40;60.00
9941;DHT22;5009;50.656;7.188;2023-03-24T14:09:30;18.50;61.40
9941;DHT22;5009;50.656;7.188;2023-03-24T14:14:29;18.60;60.00
9941;DHT22;5009;50.656;7.188;2023-03-24T14:20:09;18.50;59.60
9941;DHT22;5009;50.656;7.188;2023-03-24T14:22:40;18.50;60.20
9941;DHT22;5009;50.656;7.188;2023-03-24T14:27:44;18.40;60.70
9941;DHT22;5009;50.656;7.188;2023-03-24T14:30:27;18.30;60.20
9941;DHT22;5009;50.656;7.188;2023-03-24T14:32:59;18.20;60.80
9941;DHT22;5009;50.656;7.188;2023-03-24T14:35:40;18.10;61.00
9941;DHT22;5009;50.656;7.188;2023-03-24T14:40:49;18.30;61.00
9941;DHT22;5009;50.656;7.188;2023-03-24T14:43:25;18.30;61.10
9941;DHT22;5009;50.656;7.188;2023-03-24T14:45:59;18.30;60.30
9941;DHT22;5009;50.656;7.188;2023-03-24T14:48:33;18.30;61.50
9941;DHT22;5009;50.656;7.188;2023-03-24T14:54:01;18.30;61.50
9941;DHT22;5009;50.656;7.188;2023-03-24T14:56:36;18.20;60.50
9941;DHT22;5009;50.656;7.188;2023-03-24T14:59:18;18.10;60.00
9941;DHT22;5009;50.656;7.188;2023-03-24T15:01:49;18.00;60.80
9941;DHT22;5009;50.656;7.188;2023-03-24T15:04:16;17.90;61.20
9941;DHT22;5009;50.656;7.188;2023-03-24T15:06:46;17.90;61.00
9941;DHT22;5009;50.656;7.188;2023-03-24T15:09:15;17.90;61.10
9941;DHT22;5009;50.656;7.188;2023-03-24T15:11:41;17.80;60.90
9941;DHT22;5009;50.656;7.188;2023-03-24T15:14:27;17.60;60.30
9941;DHT22;5009;50.656;7.188;2023-03-24T15:17:21;17.60;60.20
9941;DHT22;5009;50.656;7.188;2023-03-24T15:19:50;17.60;60.00
9941;DHT22;5009;50.656;7.188;2023-03-24T15:22:16;17.40;60.00
9941;DHT22;5009;50.656;7.188;2023-03-24T15:24:46;17.40;61.00
9941;DHT22;5009;50.656;7.188;2023-03-24T15:27:23;17.30;63.00
9941;DHT22;5009;50.656;7.188;2023-03-24T15:29:53;17.30;71.10
9941;DHT22;5009;50.656;7.188;2023-03-24T15:32:21;17.20;72.30
9941;DHT22;5009;50.656;7.188;2023-03-24T15:34:51;17.40;73.40
9941;DHT22;5009;50.656;7.188;2023-03-24T15:37:24;17.30;74.80
9941;DHT22;5009;50.656;7.188;2023-03-24T15:39:52;17.30;74.50
9941;DHT22;5009;50.656;7.188;2023-03-24T15:42:20;17.30;73.50
9941;DHT22;5009;50.656;7.188;2023-03-24T15:44:47;17.30;72.70
9941;DHT22;5009;50.656;7.188;2023-03-24T15:47:23;17.30;71.50
9941;DHT22;5009;50.656;7.188;2023-03-24T15:49:58;17.30;71.00
9941;DHT22;5009;50.656;7.188;2023-03-24T15:52:34;17.20;71.40
9941;DHT22;5009;50.656;7.188;2023-03-24T15:55:25;17.10;71.20
9941;DHT22;5009;50.656;7.188;2023-03-24T15:57:52;16.90;70.00
9941;DHT22;5009;50.656;7.188;2023-03-24T16:00:23;16.80;70.40
9941;DHT22;5009;50.656;7.188;2023-03-24T16:02:51;16.70;70.40
9941;DHT22;5009;50.656;7.188;2023-03-24T16:05:26;16.60;69.80
9941;DHT22;5009;50.656;7.188;2023-03-24T16:07:58;16.60;69.00
9941;DHT22;5009;50.656;7.188;2023-03-24T16:10:34;16.60;69.30
9941;DHT22;5009;50.656;7.188;2023-03-24T16:13:19;16.50;68.60
9941;DHT22;5009;50.656;7.188;2023-03-24T16:18:41;16.50;68.20
9941;DHT22;5009;50.656;7.188;2023-03-24T16:21:21;16.40;67.50
9941;DHT22;5009;50.656;7.188;2023-03-24T16:23:48;16.40;68.00
9941;DHT22;5009;50.656;7.188;2023-03-24T16:28:42;16.50;68.10
9941;DHT22;5009;50.656;7.188;2023-03-24T16:31:27;16.50;68.00
9941;DHT22;5009;50.656;7.188;2023-03-24T16:33:55;16.40;67.40
9941;DHT22;5009;50.656;7.188;2023-03-24T16:36:22;16.40;67.70
9941;DHT22;5009;50.656;7.188;2023-03-24T16:38:52;16.20;67.50
9941;DHT22;5009;50.656;7.188;2023-03-24T16:41:18;16.20;68.10
9941;DHT22;5009;50.656;7.188;2023-03-24T16:43:44;16.10;69.00
9941;DHT22;5009;50.656;7.188;2023-03-24T16:46:31;16.00;69.30
9941;DHT22;5009;50.656;7.188;2023-03-24T16:48:58;16.10;69.90
9941;DHT22;5009;50.656;7.188;2023-03-24T16:51:24;16.10;70.40
9941;DHT22;5009;50.656;7.188;2023-03-24T16:53:51;16.10;70.30
9941;DHT22;5009;50.656;7.188;2023-03-24T16:56:18;16.00;70.30
9941;DHT22;5009;50.656;7.188;2023-03-24T16:58:45;16.00;70.30
9941;DHT22;5009;50.656;7.188;2023-03-24T17:01:40;16.00;70.20
9941;DHT22;5009;50.656;7.188;2023-03-24T17:06:42;15.90;70.90
9941;DHT22;5009;50.656;7.188;2023-03-24T17:09:08;15.80;70.80
9941;DHT22;5009;50.656;7.188;2023-03-24T17:11:42;15.70;73.10
9941;DHT22;5009;50.656;7.188;2023-03-24T17:14:09;15.60;74.90
9941;DHT22;5009;50.656;7.188;2023-03-24T17:16:40;15.60;77.50
9941;DHT22;5009;50.656;7.188;2023-03-24T17:19:14;15.40;78.80
9941;DHT22;5009;50.656;7.188;2023-03-24T17:21:48;15.30;83.00
9941;DHT22;5009;50.656;7.188;2023-03-24T17:24:15;15.20;89.20
9941;DHT22;5009;50.656;7.188;2023-03-24T17:26:41;15.00;92.30
9941;DHT22;5009;50.656;7.188;2023-03-24T17:29:10;15.00;93.00
9941;DHT22;5009;50.656;7.188;2023-03-24T17:31:36;14.90;93.70
9941;DHT22;5009;50.656;7.188;2023-03-24T17:34:01;14.80;94.10
9941;DHT22;5009;50.656;7.188;2023-03-24T17:36:27;14.80;94.40
9941;DHT22;5009;50.656;7.188;2023-03-24T17:38:53;14.70;94.90
9941;DHT22;5009;50.656;7.188;2023-03-24T17:41:18;14.60;94.90
9941;DHT22;5009;50.656;7.188;2023-03-24T17:43:45;14.40;94.90
9941;DHT22;5009;50.656;7.188;2023-03-24T17:46:11;14.30;95.10
9941;DHT22;5009;50.656;7.188;2023-03-24T17:48:37;14.20;94.90
9941;DHT22;5009;50.656;7.188;2023-03-24T17:51:03;14.20;95.30
9941;DHT22;5009;50.656;7.188;2023-03-24T17:53:29;14.10;95.40
9941;DHT22;5009;50.656;7.188;2023-03-24T17:55:58;14.00;95.50
9941;DHT22;5009;50.656;7.188;2023-03-24T17:58:25;13.90;95.50
9941;DHT22;5009;50.656;7.188;2023-03-24T18:00:52;13.70;96.20
9941;DHT22;5009;50.656;7.188;2023-03-24T18:03:18;13.60;97.00
9941;DHT22;5009;50.656;7.188;2023-03-24T18:05:43;13.40;97.40
9941;DHT22;5009;50.656;7.188;2023-03-24T18:08:09;13.20;98.50
9941;DHT22;5009;50.656;7.188;2023-03-24T18:10:36;13.00;99.60
9941;DHT22;5009;50.656;7.188;2023-03-24T18:13:03;12.90;99.90
9941;DHT22;5009;50.656;7.188;2023-03-24T18:15:29;12.70;99.90
9941;DHT22;5009;50.656;7.188;2023-03-24T18:17:55;12.60;99.90
9941;DHT22;5009;50.656;7.188;2023-03-24T18:20:21;12.60;99.90
9941;DHT22;5009;50.656;7.188;2023-03-24T18:22:47;12.60;99.90
9941;DHT22;5009;50.656;7.188;2023-03-24T18:25:13;12.50;99.90
9941;DHT22;5009;50.656;7.188;2023-03-24T18:27:39;12.50;99.90
9941;DHT22;5009;50.656;7.188;2023-03-24T18:30:06;12.60;99.90
9941;DHT22;5009;50.656;7.188;2023-03-24T18:32:32;12.50;99.90
9941;DHT22;5009;50.656;7.188;2023-03-24T18:35:00;12.50;99.90
9941;DHT22;5009;50.656;7.188;2023-03-24T18:37:29;12.50;99.10
9941;DHT22;5009;50.656;7.188;2023-03-24T18:39:54;12.50;98.30
9941;DHT22;5009;50.656;7.188;2023-03-24T18:42:20;12.60;97.60
9941;DHT22;5009;50.656;7.188;2023-03-24T18:44:46;12.60;97.10
9941;DHT22;5009;50.656;7.188;2023-03-24T18:47:11;12.60;96.60
9941;DHT22;5009;50.656;7.188;2023-03-24T18:49:40;12.60;95.80
9941;DHT22;5009;50.656;7.188;2023-03-24T18:52:06;12.60;95.50
9941;DHT22;5009;50.656;7.188;2023-03-24T18:54:31;12.60;95.30
9941;DHT22;5009;50.656;7.188;2023-03-24T18:56:57;12.60;95.20
9941;DHT22;5009;50.656;7.188;2023-03-24T18:59:23;12.60;94.80
9941;DHT22;5009;50.656;7.188;2023-03-24T19:01:48;12.60;94.10
9941;DHT22;5009;50.656;7.188;2023-03-24T19:04:15;12.50;94.20
9941;DHT22;5009;50.656;7.188;2023-03-24T19:06:42;12.60;94.10
9941;DHT22;5009;50.656;7.188;2023-03-24T19:09:08;12.50;94.10
9941;DHT22;5009;50.656;7.188;2023-03-24T19:11:34;12.60;94.10
9941;DHT22;5009;50.656;7.188;2023-03-24T19:14:00;12.60;94.30
9941;DHT22;5009;50.656;7.188;2023-03-24T19:16:26;12.60;94.30
9941;DHT22;5009;50.656;7.188;2023-03-24T19:18:52;12.60;94.30
9941;DHT22;5009;50.656;7.188;2023-03-24T19:21:18;12.60;94.60
9941;DHT22;5009;50.656;7.188;2023-03-24T19:23:47;12.50;94.40
9941;DHT22;5009;50.656;7.188;2023-03-24T19:26:13;12.50;94.40
9941;DHT22;5009;50.656;7.188;2023-03-24T19:28:41;12.50;94.20
9941;DHT22;5009;50.656;7.188;2023-03-24T19:31:08;12.50;94.40
9941;DHT22;5009;50.656;7.188;2023-03-24T19:33:35;12.40;94.20
9941;DHT22;5009;50.656;7.188;2023-03-24T19:36:02;12.50;94.30
9941;DHT22;5009;50.656;7.188;2023-03-24T19:38:28;12.40;94.80
9941;DHT22;5009;50.656;7.188;2023-03-24T19:40:54;12.50;94.60
9941;DHT22;5009;50.656;7.188;2023-03-24T19:43:23;12.40;94.60
9941;DHT22;5009;50.656;7.188;2023-03-24T19:45:53;12.40;94.60
9941;DHT22;5009;50.656;7.188;2023-03-24T19:48:19;12.40;94.60
9941;DHT22;5009;50.656;7.188;2023-03-24T19:50:45;12.40;94.70
9941;DHT22;5009;50.656;7.188;2023-03-24T19:53:11;12.40;94.60
9941;DHT22;5009;50.656;7.188;2023-03-24T19:55:37;12.50;94.60
9941;DHT22;5009;50.656;7.188;2023-03-24T19:58:02;12.40;94.50
9941;DHT22;5009;50.656;7.188;2023-03-24T20:00:28;12.50;94.60
9941;DHT22;5009;50.656;7.188;2023-03-24T20:02:54;12.40;94.80
9941;DHT22;5009;50.656;7.188;2023-03-24T20:05:20;12.40;94.70
9941;DHT22;5009;50.656;7.188;2023-03-24T20:07:45;12.40;94.60
9941;DHT22;5009;50.656;7.188;2023-03-24T20:10:11;12.40;94.80
9941;DHT22;5009;50.656;7.188;2023-03-24T20:12:37;12.40;95.10
9941;DHT22;5009;50.656;7.188;2023-03-24T20:15:03;12.40;94.90
9941;DHT22;5009;50.656;7.188;2023-03-24T20:17:29;12.40;94.80
9941;DHT22;5009;50.656;7.188;2023-03-24T20:20:02;12.40;95.10
9941;DHT22;5009;50.656;7.188;2023-03-24T20:22:28;12.30;95.80
9941;DHT22;5009;50.656;7.188;2023-03-24T20:24:53;12.30;96.20
9941;DHT22;5009;50.656;7.188;2023-03-24T20:27:20;12.20;96.70
9941;DHT22;5009;50.656;7.188;2023-03-24T20:29:45;12.20;97.00
9941;DHT22;5009;50.656;7.188;2023-03-24T20:32:11;12.20;97.30
9941;DHT22;5009;50.656;7.188;2023-03-24T20:34:37;12.20;97.10
9941;DHT22;5009;50.656;7.188;2023-03-24T20:37:04;12.20;97.30
9941;DHT22;5009;50.656;7.188;2023-03-24T20:39:30;12.20;97.40
9941;DHT22;5009;50.656;7.188;2023-03-24T20:41:56;12.10;97.50
9941;DHT22;5009;50.656;7.188;2023-03-24T20:44:22;12.10;97.60
9941;DHT22;5009;50.656;7.188;2023-03-24T20:46:47;12.00;97.90
9941;DHT22;5009;50.656;7.188;2023-03-24T20:49:13;12.10;97.90
9941;DHT22;5009;50.656;7.188;2023-03-24T20:51:41;12.00;98.10
9941;DHT22;5009;50.656;7.188;2023-03-24T20:54:07;12.00;98.30
9941;DHT22;5009;50.656;7.188;2023-03-24T20:56:33;11.90;98.30
9941;DHT22;5009;50.656;7.188;2023-03-24T20:58:59;11.90;98.50
9941;DHT22;5009;50.656;7.188;2023-03-24T21:01:26;11.80;98.90
9941;DHT22;5009;50.656;7.188;2023-03-24T21:04:00;11.80;98.80
9941;DHT22;5009;50.656;7.188;2023-03-24T21:06:26;11.70;98.70
9941;DHT22;5009;50.656;7.188;2023-03-24T21:08:52;11.60;99.00
9941;DHT22;5009;50.656;7.188;2023-03-24T21:11:19;11.60;99.10
9941;DHT22;5009;50.656;7.188;2023-03-24T21:13:44;11.60;98.80
9941;DHT22;5009;50.656;7.188;2023-03-24T21:16:11;11.60;98.80
9941;DHT22;5009;50.656;7.188;2023-03-24T21:18:37;11.60;98.30
9941;DHT22;5009;50.656;7.188;2023-03-24T21:21:03;11.50;98.30
9941;DHT22;5009;50.656;7.188;2023-03-24T21:23:31;11.50;98.30
9941;DHT22;5009;50.656;7.188;2023-03-24T21:26:05;11.50;97.90
9941;DHT22;5009;50.656;7.188;2023-03-24T21:28:31;11.50;97.70
9941;DHT22;5009;50.656;7.188;2023-03-24T21:30:58;11.50;97.70
9941;DHT22;5009;50.656;7.188;2023-03-24T21:33:29;11.40;98.00
9941;DHT22;5009;50.656;7.188;2023-03-24T21:35:55;11.40;98.30
9941;DHT22;5009;50.656;7.188;2023-03-24T21:38:20;11.30;98.20
9941;DHT22;5009;50.656;7.188;2023-03-24T21:40:46;11.30;98.50
9941;DHT22;5009;50.656;7.188;2023-03-24T21:43:12;11.30;98.50
9941;DHT22;5009;50.656;7.188;2023-03-24T21:45:39;11.30;98.50
9941;DHT22;5009;50.656;7.188;2023-03-24T21:48:05;11.30;98.30
9941;DHT22;5009;50.656;7.188;2023-03-24T21:50:32;11.30;98.30
9941;DHT22;5009;50.656;7.188;2023-03-24T21:53:03;11.30;98.30
9941;DHT22;5009;50.656;7.188;2023-03-24T21:55:31;11.30;98.00
9941;DHT22;5009;50.656;7.188;2023-03-24T21:57:56;11.40;98.00
